sensor_id;sensor_type;location;lat;lon;timestamp;pressure;altitude;pressure_sealevel;temperature;humidity
59274;BME280;45044;41.572;24.730;2023-05-19T00:01:17;91314.69;;;9.06;100.00
59274;BME280;45044;41.572;24.730;2023-05-19T00:03:51;91313.81;;;8.91;100.00
59274;BME280;45044;41.572;24.730;2023-05-19T00:06:24;91311.63;;;9.01;100.00
59274;BME280;45044;41.572;24.730;2023-05-19T00:11:24;91306.22;;;8.79;100.00
59274;BME280;45044;41.572;24.730;2023-05-19T00:13:53;91307.47;;;8.92;100.00
59274;BME280;45044;41.572;24.730;2023-05-19T00:16:21;91298.84;;;8.95;100.00
59274;BME280;45044;41.572;24.730;2023-05-19T00:18:48;91296.28;;;9.03;100.00
59274;BME280;45044;41.572;24.730;2023-05-19T00:21:15;91297.69;;;8.93;100.00
59274;BME280;45044;41.572;24.730;2023-05-19T00:23:42;91301.47;;;8.95;100.00
59274;BME280;45044;41.572;24.730;2023-05-19T00:26:10;91292.09;;;8.94;100.00
59274;BME280;45044;41.572;24.730;2023-05-19T00:28:38;91296.19;;;8.88;100.00
59274;BME280;45044;41.572;24.730;2023-05-19T00:31:05;91292.78;;;8.88;100.00
59274;BME280;45044;41.572;24.730;2023-05-19T00:33:33;91296.91;;;8.85;100.00
59274;BME280;45044;41.572;24.730;2023-05-19T00:36:01;91293.94;;;8.86;100.00
59274;BME280;45044;41.572;24.730;2023-05-19T00:38:33;91306.59;;;8.81;100.00
59274;BME280;45044;41.572;24.730;2023-05-19T00:41:01;91301.75;;;8.83;100.00
59274;BME280;45044;41.572;24.730;2023-05-19T00:43:28;91307.97;;;8.67;100.00
59274;BME280;45044;41.572;24.730;2023-05-19T00:46:00;91303.97;;;8.81;100.00
59274;BME280;45044;41.572;24.730;2023-05-19T00:48:27;91307.81;;;8.94;100.00
59274;BME280;45044;41.572;24.730;2023-05-19T00:50:56;91297.41;;;9.05;100.00
59274;BME280;45044;41.572;24.730;2023-05-19T00:53:33;91301.13;;;8.97;100.00
59274;BME280;45044;41.572;24.730;2023-05-19T00:56:01;91298.50;;;8.97;100.00
59274;BME280;45044;41.572;24.730;2023-05-19T00:58:29;91287.63;;;8.95;100.00
59274;BME280;45044;41.572;24.730;2023-05-19T01:00:59;91295.13;;;8.96;100.00
59274;BME280;45044;41.572;24.730;2023-05-19T01:03:34;91286.84;;;8.94;100.00
59274;BME280;45044;41.572;24.730;2023-05-19T01:06:02;91275.53;;;8.83;100.00
59274;BME280;45044;41.572;24.730;2023-05-19T01:08:35;91291.25;;;8.79;100.00
59274;BME280;45044;41.572;24.730;2023-05-19T01:11:06;91287.41;;;8.69;100.00
59274;BME280;45044;41.572;24.730;2023-05-19T01:13:34;91296.06;;;8.73;100.00
59274;BME280;45044;41.572;24.730;2023-05-19T01:16:16;91288.53;;;8.68;100.00
59274;BME280;45044;41.572;24.730;2023-05-19T01:24:44;91290.53;;;8.86;100.00
59274;BME280;45044;41.572;24.730;2023-05-19T01:32:33;91286.81;;;8.91;100.00
59274;BME280;45044;41.572;24.730;2023-05-19T01:35:01;91281.81;;;8.74;100.00
59274;BME280;45044;41.572;24.730;2023-05-19T01:37:29;91289.28;;;8.72;100.00
59274;BME280;45044;41.572;24.730;2023-05-19T01:39:56;91283.69;;;8.70;100.00
59274;BME280;45044;41.572;24.730;2023-05-19T01:42:23;91292.72;;;8.77;100.00
59274;BME280;45044;41.572;24.730;2023-05-19T01:44:52;91285.88;;;8.65;100.00
59274;BME280;45044;41.572;24.730;2023-05-19T01:47:19;91283.59;;;8.59;100.00
59274;BME280;45044;41.572;24.730;2023-05-19T01:49:51;91283.97;;;8.61;100.00
59274;BME280;45044;41.572;24.730;2023-05-19T01:52:18;91285.25;;;8.41;100.00
59274;BME280;45044;41.572;24.730;2023-05-19T01:54:45;91288.19;;;8.35;100.00
59274;BME280;45044;41.572;24.730;2023-05-19T01:57:22;91292.31;;;8.36;100.00
59274;BME280;45044;41.572;24.730;2023-05-19T02:08:21;91290.56;;;8.10;100.00
59274;BME280;45044;41.572;24.730;2023-05-19T02:10:56;91296.94;;;8.12;100.00
59274;BME280;45044;41.572;24.730;2023-05-19T02:13:28;91294.53;;;8.00;100.00
59274;BME280;45044;41.572;24.730;2023-05-19T02:16:02;91289.03;;;8.09;100.00
59274;BME280;45044;41.572;24.730;2023-05-19T02:18:33;91305.97;;;7.84;100.00
59274;BME280;45044;41.572;24.730;2023-05-19T02:21:01;91298.66;;;7.97;100.00
59274;BME280;45044;41.572;24.730;2023-05-19T02:23:28;91301.66;;;7.99;100.00
59274;BME280;45044;41.572;24.730;2023-05-19T02:25:54;91297.88;;;7.97;100.00
59274;BME280;45044;41.572;24.730;2023-05-19T02:28:21;91294.75;;;7.84;100.00
59274;BME280;45044;41.572;24.730;2023-05-19T02:30:49;91292.53;;;7.86;100.00
59274;BME280;45044;41.572;24.730;2023-05-19T02:33:15;91292.53;;;7.86;100.00
59274;BME280;45044;41.572;24.730;2023-05-19T02:35:44;91308.72;;;7.95;100.00
59274;BME280;45044;41.572;24.730;2023-05-19T02:38:11;91313.56;;;7.93;100.00
59274;BME280;45044;41.572;24.730;2023-05-19T02:40:38;91305.41;;;8.02;100.00
59274;BME280;45044;41.572;24.730;2023-05-19T02:43:05;91309.94;;;8.05;100.00
59274;BME280;45044;41.572;24.730;2023-05-19T02:45:31;91296.00;;;7.94;100.00
59274;BME280;45044;41.572;24.730;2023-05-19T02:47:58;91309.03;;;7.90;100.00
59274;BME280;45044;41.572;24.730;2023-05-19T02:50:25;91308.69;;;7.91;100.00
59274;BME280;45044;41.572;24.730;2023-05-19T02:52:52;91314.66;;;7.92;100.00
59274;BME280;45044;41.572;24.730;2023-05-19T02:55:19;91320.59;;;7.58;100.00
59274;BME280;45044;41.572;24.730;2023-05-19T02:57:46;91320.31;;;7.67;100.00
59274;BME280;45044;41.572;24.730;2023-05-19T03:00:13;91319.22;;;7.68;100.00
59274;BME280;45044;41.572;24.730;2023-05-19T03:02:40;91315.09;;;7.40;100.00
59274;BME280;45044;41.572;24.730;2023-05-19T03:05:09;91315.31;;;7.54;100.00
59274;BME280;45044;41.572;24.730;2023-05-19T03:07:36;91304.16;;;7.58;100.00
59274;BME280;45044;41.572;24.730;2023-05-19T03:10:03;91291.28;;;7.45;100.00
59274;BME280;45044;41.572;24.730;2023-05-19T03:12:32;91286.09;;;7.49;100.00
59274;BME280;45044;41.572;24.730;2023-05-19T03:14:59;91295.81;;;7.48;100.00
59274;BME280;45044;41.572;24.730;2023-05-19T03:17:26;91293.69;;;7.58;100.00
59274;BME280;45044;41.572;24.730;2023-05-19T03:19:59;91304.94;;;7.62;100.00
59274;BME280;45044;41.572;24.730;2023-05-19T03:22:26;91307.16;;;7.60;100.00
59274;BME280;45044;41.572;24.730;2023-05-19T03:24:53;91299.69;;;7.62;100.00
59274;BME280;45044;41.572;24.730;2023-05-19T03:27:20;91302.00;;;7.67;100.00
59274;BME280;45044;41.572;24.730;2023-05-19T03:29:47;91301.81;;;7.79;100.00
59274;BME280;45044;41.572;24.730;2023-05-19T03:32:14;91301.00;;;7.75;100.00
59274;BME280;45044;41.572;24.730;2023-05-19T03:34:40;91314.13;;;7.79;100.00
59274;BME280;45044;41.572;24.730;2023-05-19T03:37:08;91301.84;;;7.83;100.00
59274;BME280;45044;41.572;24.730;2023-05-19T03:39:36;91311.25;;;7.88;100.00
59274;BME280;45044;41.572;24.730;2023-05-19T03:42:03;91298.56;;;7.90;100.00
59274;BME280;45044;41.572;24.730;2023-05-19T03:44:29;91309.03;;;7.90;100.00
59274;BME280;45044;41.572;24.730;2023-05-19T03:46:56;91301.44;;;7.81;100.00
59274;BME280;45044;41.572;24.730;2023-05-19T03:49:23;91312.19;;;8.03;100.00
59274;BME280;45044;41.572;24.730;2023-05-19T03:51:50;91313.63;;;8.00;100.00
59274;BME280;45044;41.572;24.730;2023-05-19T03:54:16;91324.19;;;8.08;100.00
59274;BME280;45044;41.572;24.730;2023-05-19T03:56:44;91322.13;;;8.24;100.00
59274;BME280;45044;41.572;24.730;2023-05-19T03:59:11;91323.84;;;8.47;100.00
59274;BME280;45044;41.572;24.730;2023-05-19T04:01:38;91338.31;;;8.68;100.00
59274;BME280;45044;41.572;24.730;2023-05-19T04:04:05;91330.03;;;8.62;100.00
59274;BME280;45044;41.572;24.730;2023-05-19T04:06:32;91329.16;;;8.55;100.00
59274;BME280;45044;41.572;24.730;2023-05-19T04:09:01;91319.50;;;8.59;100.00
59274;BME280;45044;41.572;24.730;2023-05-19T04:11:27;91337.59;;;8.71;100.00
59274;BME280;45044;41.572;24.730;2023-05-19T04:13:55;91331.63;;;8.74;100.00
59274;BME280;45044;41.572;24.730;2023-05-19T04:16:22;91336.19;;;8.81;100.00
59274;BME280;45044;41.572;24.730;2023-05-19T04:18:49;91334.38;;;8.89;100.00
59274;BME280;45044;41.572;24.730;2023-05-19T04:21:16;91339.38;;;9.05;100.00
59274;BME280;45044;41.572;24.730;2023-05-19T04:23:43;91336.75;;;9.05;100.00
59274;BME280;45044;41.572;24.730;2023-05-19T04:26:10;91334.09;;;9.02;100.00
59274;BME280;45044;41.572;24.730;2023-05-19T04:28:37;91337.75;;;9.39;100.00
59274;BME280;45044;41.572;24.730;2023-05-19T04:31:08;91318.69;;;9.45;100.00
59274;BME280;45044;41.572;24.730;2023-05-19T04:33:36;91341.38;;;9.76;100.00
59274;BME280;45044;41.572;24.730;2023-05-19T04:36:04;91336.78;;;9.62;100.00
59274;BME280;45044;41.572;24.730;2023-05-19T04:38:34;91349.53;;;9.67;100.00
59274;BME280;45044;41.572;24.730;2023-05-19T04:41:02;91357.97;;;9.94;100.00
59274;BME280;45044;41.572;24.730;2023-05-19T04:43:29;91355.00;;;10.03;100.00
59274;BME280;45044;41.572;24.730;2023-05-19T04:45:57;91351.13;;;10.64;100.00
59274;BME280;45044;41.572;24.730;2023-05-19T04:48:23;91363.97;;;12.84;100.00
59274;BME280;45044;41.572;24.730;2023-05-19T04:50:51;91364.53;;;14.75;100.00
59274;BME280;45044;41.572;24.730;2023-05-19T04:53:18;91369.94;;;15.75;100.00
59274;BME280;45044;41.572;24.730;2023-05-19T04:55:47;91374.25;;;16.74;100.00
59274;BME280;45044;41.572;24.730;2023-05-19T04:58:14;91386.09;;;17.93;100.00
59274;BME280;45044;41.572;24.730;2023-05-19T05:00:42;91389.44;;;17.64;100.00
59274;BME280;45044;41.572;24.730;2023-05-19T05:03:09;91397.88;;;16.68;100.00
59274;BME280;45044;41.572;24.730;2023-05-19T05:05:36;91389.31;;;15.96;100.00
59274;BME280;45044;41.572;24.730;2023-05-19T05:08:02;91392.94;;;16.06;100.00
59274;BME280;45044;41.572;24.730;2023-05-19T05:10:29;91394.69;;;15.13;100.00
59274;BME280;45044;41.572;24.730;2023-05-19T05:12:57;91399.50;;;14.59;100.00
59274;BME280;45044;41.572;24.730;2023-05-19T05:15:24;91397.44;;;15.05;100.00
59274;BME280;45044;41.572;24.730;2023-05-19T05:17:54;91395.03;;;16.96;100.00
59274;BME280;45044;41.572;24.730;2023-05-19T05:20:21;91400.47;;;18.85;100.00
59274;BME280;45044;41.572;24.730;2023-05-19T05:22:48;91400.97;;;18.67;100.00
59274;BME280;45044;41.572;24.730;2023-05-19T05:25:16;91405.13;;;17.58;100.00
59274;BME280;45044;41.572;24.730;2023-05-19T05:27:43;91407.69;;;17.08;100.00
59274;BME280;45044;41.572;24.730;2023-05-19T05:30:10;91400.78;;;16.13;100.00
59274;BME280;45044;41.572;24.730;2023-05-19T05:32:36;91411.56;;;15.50;100.00
59274;BME280;45044;41.572;24.730;2023-05-19T05:35:04;91420.22;;;14.99;100.00
59274;BME280;45044;41.572;24.730;2023-05-19T05:37:31;91418.22;;;14.76;100.00
59274;BME280;45044;41.572;24.730;2023-05-19T05:39:57;91422.03;;;14.36;100.00
59274;BME280;45044;41.572;24.730;2023-05-19T05:42:24;91412.94;;;15.35;100.00
59274;BME280;45044;41.572;24.730;2023-05-19T05:44:54;91413.25;;;17.51;100.00
59274;BME280;45044;41.572;24.730;2023-05-19T05:47:21;91429.16;;;19.07;93.45
59274;BME280;45044;41.572;24.730;2023-05-19T05:49:48;91421.72;;;20.42;78.34
59274;BME280;45044;41.572;24.730;2023-05-19T05:52:19;91425.44;;;21.44;76.52
59274;BME280;45044;41.572;24.730;2023-05-19T05:54:46;91425.41;;;22.73;61.81
59274;BME280;45044;41.572;24.730;2023-05-19T05:57:13;91422.94;;;23.99;59.38
59274;BME280;45044;41.572;24.730;2023-05-19T05:59:41;91424.97;;;22.75;58.41
59274;BME280;45044;41.572;24.730;2023-05-19T06:02:08;91437.66;;;23.45;56.08
59274;BME280;45044;41.572;24.730;2023-05-19T06:04:41;91430.25;;;24.87;51.21
59274;BME280;45044;41.572;24.730;2023-05-19T06:07:08;91434.63;;;25.45;49.16
59274;BME280;45044;41.572;24.730;2023-05-19T06:09:34;91451.47;;;25.91;49.60
59274;BME280;45044;41.572;24.730;2023-05-19T06:12:01;91439.72;;;24.19;51.38
59274;BME280;45044;41.572;24.730;2023-05-19T06:14:28;91435.09;;;24.98;48.86
59274;BME280;45044;41.572;24.730;2023-05-19T06:16:55;91439.38;;;25.66;48.95
59274;BME280;45044;41.572;24.730;2023-05-19T06:19:21;91431.47;;;25.32;50.87
59274;BME280;45044;41.572;24.730;2023-05-19T06:21:50;91436.63;;;26.79;46.57
59274;BME280;45044;41.572;24.730;2023-05-19T06:24:17;91431.03;;;25.84;47.10
59274;BME280;45044;41.572;24.730;2023-05-19T06:26:44;91435.03;;;25.89;49.44
59274;BME280;45044;41.572;24.730;2023-05-19T06:29:11;91446.09;;;26.96;46.91
59274;BME280;45044;41.572;24.730;2023-05-19T06:31:37;91447.50;;;26.43;45.11
59274;BME280;45044;41.572;24.730;2023-05-19T06:34:04;91440.09;;;24.26;49.79
59274;BME280;45044;41.572;24.730;2023-05-19T06:36:31;91449.97;;;24.69;49.01
59274;BME280;45044;41.572;24.730;2023-05-19T06:38:58;91456.31;;;24.57;49.20
59274;BME280;45044;41.572;24.730;2023-05-19T06:41:27;91439.72;;;23.51;50.36
59274;BME280;45044;41.572;24.730;2023-05-19T06:43:54;91446.25;;;23.93;48.98
59274;BME280;45044;41.572;24.730;2023-05-19T06:46:21;91446.56;;;21.92;55.50
59274;BME280;45044;41.572;24.730;2023-05-19T06:48:48;91445.28;;;22.16;52.34
59274;BME280;45044;41.572;24.730;2023-05-19T06:51:15;91452.78;;;20.93;59.12
59274;BME280;45044;41.572;24.730;2023-05-19T06:53:47;91454.84;;;23.01;55.45
59274;BME280;45044;41.572;24.730;2023-05-19T06:56:14;91447.03;;;24.09;50.54
59274;BME280;45044;41.572;24.730;2023-05-19T06:58:41;91458.19;;;23.49;49.22
59274;BME280;45044;41.572;24.730;2023-05-19T07:01:08;91461.75;;;23.89;51.15
59274;BME280;45044;41.572;24.730;2023-05-19T07:03:35;91457.97;;;23.71;48.60
59274;BME280;45044;41.572;24.730;2023-05-19T07:06:02;91448.47;;;22.70;57.58
59274;BME280;45044;41.572;24.730;2023-05-19T07:08:33;91454.66;;;23.42;50.43
59274;BME280;45044;41.572;24.730;2023-05-19T07:11:00;91456.25;;;24.17;51.08
59274;BME280;45044;41.572;24.730;2023-05-19T07:13:27;91456.66;;;24.89;51.34
59274;BME280;45044;41.572;24.730;2023-05-19T07:15:53;91457.47;;;23.29;55.00
59274;BME280;45044;41.572;24.730;2023-05-19T07:18:23;91454.06;;;23.19;56.10
59274;BME280;45044;41.572;24.730;2023-05-19T07:20:51;91459.81;;;21.96;58.17
59274;BME280;45044;41.572;24.730;2023-05-19T07:23:19;91456.41;;;21.63;60.06
59274;BME280;45044;41.572;24.730;2023-05-19T07:25:46;91454.25;;;22.41;60.79
59274;BME280;45044;41.572;24.730;2023-05-19T07:28:12;91455.66;;;23.88;53.61
59274;BME280;45044;41.572;24.730;2023-05-19T07:30:39;91460.34;;;22.97;50.15
59274;BME280;45044;41.572;24.730;2023-05-19T07:33:06;91464.38;;;24.57;51.59
59274;BME280;45044;41.572;24.730;2023-05-19T07:35:33;91460.53;;;24.48;46.63
59274;BME280;45044;41.572;24.730;2023-05-19T07:38:00;91455.34;;;24.69;48.10
59274;BME280;45044;41.572;24.730;2023-05-19T07:40:29;91448.47;;;25.08;46.37
59274;BME280;45044;41.572;24.730;2023-05-19T07:42:57;91454.94;;;25.62;47.91
59274;BME280;45044;41.572;24.730;2023-05-19T07:45:24;91457.56;;;25.26;47.10
59274;BME280;45044;41.572;24.730;2023-05-19T07:47:52;91458.31;;;24.71;48.89
59274;BME280;45044;41.572;24.730;2023-05-19T07:50:19;91466.09;;;24.20;48.44
59274;BME280;45044;41.572;24.730;2023-05-19T07:52:46;91461.06;;;24.37;50.23
59274;BME280;45044;41.572;24.730;2023-05-19T07:55:14;91461.25;;;24.00;48.57
59274;BME280;45044;41.572;24.730;2023-05-19T07:57:41;91466.91;;;23.15;49.78
59274;BME280;45044;41.572;24.730;2023-05-19T08:00:08;91461.34;;;21.33;57.68
59274;BME280;45044;41.572;24.730;2023-05-19T08:02:37;91466.69;;;21.97;52.96
59274;BME280;45044;41.572;24.730;2023-05-19T08:05:04;91458.22;;;22.08;60.79
59274;BME280;45044;41.572;24.730;2023-05-19T08:07:31;91460.09;;;20.80;60.70
59274;BME280;45044;41.572;24.730;2023-05-19T08:09:58;91472.81;;;20.18;61.67
59274;BME280;45044;41.572;24.730;2023-05-19T08:12:25;91490.22;;;19.44;70.28
59274;BME280;45044;41.572;24.730;2023-05-19T08:14:52;91484.34;;;18.47;93.56
59274;BME280;45044;41.572;24.730;2023-05-19T08:17:18;91485.53;;;17.96;87.94
59274;BME280;45044;41.572;24.730;2023-05-19T08:19:45;91505.06;;;17.35;100.00
59274;BME280;45044;41.572;24.730;2023-05-19T08:22:12;91502.22;;;17.26;100.00
59274;BME280;45044;41.572;24.730;2023-05-19T08:24:38;91502.06;;;17.33;100.00
59274;BME280;45044;41.572;24.730;2023-05-19T08:27:07;91491.44;;;17.87;100.00
59274;BME280;45044;41.572;24.730;2023-05-19T08:29:34;91487.94;;;17.90;100.00
59274;BME280;45044;41.572;24.730;2023-05-19T08:32:02;91493.88;;;18.61;100.00
59274;BME280;45044;41.572;24.730;2023-05-19T08:34:30;91491.09;;;18.82;100.00
59274;BME280;45044;41.572;24.730;2023-05-19T08:36:58;91500.81;;;18.88;100.00
59274;BME280;45044;41.572;24.730;2023-05-19T08:39:25;91496.47;;;19.37;100.00
59274;BME280;45044;41.572;24.730;2023-05-19T08:41:53;91498.06;;;19.22;99.84
59274;BME280;45044;41.572;24.730;2023-05-19T08:44:20;91501.53;;;20.01;100.00
59274;BME280;45044;41.572;24.730;2023-05-19T08:46:48;91522.41;;;20.41;88.82
59274;BME280;45044;41.572;24.730;2023-05-19T08:49:19;91490.53;;;20.60;73.63
59274;BME280;45044;41.572;24.730;2023-05-19T08:54:24;91522.13;;;20.13;83.08
59274;BME280;45044;41.572;24.730;2023-05-19T08:56:53;91527.03;;;19.62;98.16
59274;BME280;45044;41.572;24.730;2023-05-19T08:59:21;91522.06;;;19.35;91.18
59274;BME280;45044;41.572;24.730;2023-05-19T09:01:49;91515.66;;;19.32;100.00
59274;BME280;45044;41.572;24.730;2023-05-19T09:04:17;91518.59;;;19.77;99.35
59274;BME280;45044;41.572;24.730;2023-05-19T09:06:44;91508.66;;;19.78;100.00
59274;BME280;45044;41.572;24.730;2023-05-19T09:09:11;91503.88;;;19.98;100.00
59274;BME280;45044;41.572;24.730;2023-05-19T09:11:38;91516.13;;;19.83;93.69
59274;BME280;45044;41.572;24.730;2023-05-19T09:14:04;91500.44;;;20.37;100.00
59274;BME280;45044;41.572;24.730;2023-05-19T09:16:31;91491.28;;;20.61;86.12
59274;BME280;45044;41.572;24.730;2023-05-19T09:18:59;91492.25;;;19.66;98.49
59274;BME280;45044;41.572;24.730;2023-05-19T09:21:29;91507.47;;;20.31;81.52
59274;BME280;45044;41.572;24.730;2023-05-19T09:23:58;91502.56;;;19.90;92.00
59274;BME280;45044;41.572;24.730;2023-05-19T09:26:39;91502.13;;;19.39;91.19
59274;BME280;45044;41.572;24.730;2023-05-19T09:29:15;91498.09;;;19.05;94.60
59274;BME280;45044;41.572;24.730;2023-05-19T09:31:52;91505.22;;;18.95;98.71
59274;BME280;45044;41.572;24.730;2023-05-19T09:34:21;91501.94;;;18.45;100.00
59274;BME280;45044;41.572;24.730;2023-05-19T09:36:51;91504.69;;;18.41;100.00
59274;BME280;45044;41.572;24.730;2023-05-19T09:39:21;91505.19;;;19.12;100.00
59274;BME280;45044;41.572;24.730;2023-05-19T09:41:52;91509.63;;;19.71;100.00
59274;BME280;45044;41.572;24.730;2023-05-19T09:44:25;91508.34;;;20.28;100.00
59274;BME280;45044;41.572;24.730;2023-05-19T09:46:56;91492.41;;;20.73;100.00
59274;BME280;45044;41.572;24.730;2023-05-19T09:49:25;91493.22;;;20.47;77.68
59274;BME280;45044;41.572;24.730;2023-05-19T09:51:55;91496.59;;;20.25;86.53
59274;BME280;45044;41.572;24.730;2023-05-19T09:54:23;91496.91;;;20.27;72.24
59274;BME280;45044;41.572;24.730;2023-05-19T09:56:57;91491.47;;;20.05;84.61
59274;BME280;45044;41.572;24.730;2023-05-19T09:59:25;91482.84;;;20.01;82.90
59274;BME280;45044;41.572;24.730;2023-05-19T10:01:55;91487.97;;;19.69;75.42
59274;BME280;45044;41.572;24.730;2023-05-19T10:04:24;91498.94;;;19.32;73.62
59274;BME280;45044;41.572;24.730;2023-05-19T10:06:54;91515.78;;;18.99;89.51
59274;BME280;45044;41.572;24.730;2023-05-19T10:09:25;91515.75;;;17.69;100.00
59274;BME280;45044;41.572;24.730;2023-05-19T10:11:54;91526.78;;;16.90;100.00
59274;BME280;45044;41.572;24.730;2023-05-19T10:14:23;91528.66;;;16.69;100.00
59274;BME280;45044;41.572;24.730;2023-05-19T10:16:51;91516.50;;;16.47;100.00
59274;BME280;45044;41.572;24.730;2023-05-19T10:19:23;91528.69;;;16.45;100.00
59274;BME280;45044;41.572;24.730;2023-05-19T10:21:51;91526.84;;;16.42;100.00
59274;BME280;45044;41.572;24.730;2023-05-19T10:24:19;91526.25;;;16.54;100.00
59274;BME280;45044;41.572;24.730;2023-05-19T10:27:03;91527.00;;;16.55;100.00
59274;BME280;45044;41.572;24.730;2023-05-19T10:29:35;91517.38;;;16.85;100.00
59274;BME280;45044;41.572;24.730;2023-05-19T10:32:06;91514.72;;;17.05;100.00
59274;BME280;45044;41.572;24.730;2023-05-19T10:40:36;91515.69;;;16.95;100.00
59274;BME280;45044;41.572;24.730;2023-05-19T10:43:14;91519.97;;;16.88;100.00
59274;BME280;45044;41.572;24.730;2023-05-19T10:45:50;91508.13;;;16.49;100.00
59274;BME280;45044;41.572;24.730;2023-05-19T10:48:19;91497.91;;;17.12;100.00
59274;BME280;45044;41.572;24.730;2023-05-19T10:50:53;91500.66;;;17.82;100.00
59274;BME280;45044;41.572;24.730;2023-05-19T10:53:20;91489.81;;;18.73;100.00
59274;BME280;45044;41.572;24.730;2023-05-19T10:55:53;91487.28;;;18.36;100.00
59274;BME280;45044;41.572;24.730;2023-05-19T11:01:12;91520.16;;;18.29;100.00
59274;BME280;45044;41.572;24.730;2023-05-19T11:03:50;91549.47;;;17.15;100.00
59274;BME280;45044;41.572;24.730;2023-05-19T11:06:29;91576.78;;;16.23;100.00
59274;BME280;45044;41.572;24.730;2023-05-19T11:09:14;91551.06;;;15.92;100.00
59274;BME280;45044;41.572;24.730;2023-05-19T11:11:45;91530.16;;;15.70;100.00
59274;BME280;45044;41.572;24.730;2023-05-19T11:14:14;91542.66;;;15.69;100.00
59274;BME280;45044;41.572;24.730;2023-05-19T11:16:46;91544.53;;;15.97;100.00
59274;BME280;45044;41.572;24.730;2023-05-19T11:19:33;91544.91;;;15.99;100.00
59274;BME280;45044;41.572;24.730;2023-05-19T11:22:11;91549.78;;;16.04;100.00
59274;BME280;45044;41.572;24.730;2023-05-19T11:24:45;91540.72;;;15.98;100.00
59274;BME280;45044;41.572;24.730;2023-05-19T11:27:29;91540.44;;;16.20;100.00
59274;BME280;45044;41.572;24.730;2023-05-19T11:29:59;91536.19;;;16.50;100.00
59274;BME280;45044;41.572;24.730;2023-05-19T11:32:29;91525.56;;;16.50;100.00
59274;BME280;45044;41.572;24.730;2023-05-19T11:34:56;91522.25;;;17.10;100.00
59274;BME280;45044;41.572;24.730;2023-05-19T11:37:24;91526.53;;;17.62;100.00
59274;BME280;45044;41.572;24.730;2023-05-19T11:39:51;91517.97;;;18.07;100.00
59274;BME280;45044;41.572;24.730;2023-05-19T11:42:18;91510.84;;;18.67;100.00
59274;BME280;45044;41.572;24.730;2023-05-19T11:44:47;91507.06;;;18.82;100.00
59274;BME280;45044;41.572;24.730;2023-05-19T11:47:15;91511.06;;;18.90;100.00
59274;BME280;45044;41.572;24.730;2023-05-19T11:49:49;91509.06;;;18.77;100.00
59274;BME280;45044;41.572;24.730;2023-05-19T11:52:19;91506.72;;;18.66;100.00
59274;BME280;45044;41.572;24.730;2023-05-19T11:54:47;91510.13;;;18.50;100.00
59274;BME280;45044;41.572;24.730;2023-05-19T11:57:14;91517.38;;;18.50;100.00
59274;BME280;45044;41.572;24.730;2023-05-19T11:59:41;91508.81;;;18.42;100.00
59274;BME280;45044;41.572;24.730;2023-05-19T12:02:20;91514.03;;;18.12;100.00
59274;BME280;45044;41.572;24.730;2023-05-19T12:04:48;91510.72;;;18.25;100.00
59274;BME280;45044;41.572;24.730;2023-05-19T12:07:16;91517.66;;;18.22;100.00
59274;BME280;45044;41.572;24.730;2023-05-19T12:09:47;91509.25;;;18.24;100.00
59274;BME280;45044;41.572;24.730;2023-05-19T12:12:20;91508.16;;;18.38;100.00
59274;BME280;45044;41.572;24.730;2023-05-19T12:14:50;91517.06;;;18.31;100.00
59274;BME280;45044;41.572;24.730;2023-05-19T12:17:19;91510.59;;;18.78;100.00
59274;BME280;45044;41.572;24.730;2023-05-19T12:19:47;91512.22;;;19.19;89.33
59274;BME280;45044;41.572;24.730;2023-05-19T12:22:16;91510.44;;;19.29;92.15
59274;BME280;45044;41.572;24.730;2023-05-19T12:24:43;91503.84;;;19.59;100.00
59274;BME280;45044;41.572;24.730;2023-05-19T12:27:17;91503.75;;;19.89;94.52
59274;BME280;45044;41.572;24.730;2023-05-19T12:29:49;91513.00;;;20.50;100.00
59274;BME280;45044;41.572;24.730;2023-05-19T12:32:23;91501.09;;;20.64;90.88
59274;BME280;45044;41.572;24.730;2023-05-19T12:34:51;91509.66;;;20.10;68.86
59274;BME280;45044;41.572;24.730;2023-05-19T12:37:18;91512.75;;;19.26;71.92
59274;BME280;45044;41.572;24.730;2023-05-19T12:39:47;91512.06;;;19.39;82.58
59274;BME280;45044;41.572;24.730;2023-05-19T12:42:14;91502.00;;;19.17;79.34
59274;BME280;45044;41.572;24.730;2023-05-19T12:44:47;91515.66;;;19.19;100.00
59274;BME280;45044;41.572;24.730;2023-05-19T12:47:16;91514.38;;;19.24;98.64
59274;BME280;45044;41.572;24.730;2023-05-19T12:52:34;91520.06;;;18.79;100.00
59274;BME280;45044;41.572;24.730;2023-05-19T12:55:07;91512.69;;;18.71;98.04
59274;BME280;45044;41.572;24.730;2023-05-19T12:57:35;91509.59;;;18.72;87.29
59274;BME280;45044;41.572;24.730;2023-05-19T13:00:05;91504.53;;;18.61;100.00
59274;BME280;45044;41.572;24.730;2023-05-19T13:02:33;91509.78;;;18.65;100.00
59274;BME280;45044;41.572;24.730;2023-05-19T13:05:02;91506.31;;;19.11;100.00
59274;BME280;45044;41.572;24.730;2023-05-19T13:07:30;91517.06;;;19.07;100.00
59274;BME280;45044;41.572;24.730;2023-05-19T13:09:57;91513.13;;;18.36;87.61
59274;BME280;45044;41.572;24.730;2023-05-19T13:12:24;91518.41;;;18.23;100.00
59274;BME280;45044;41.572;24.730;2023-05-19T13:14:51;91532.25;;;17.97;100.00
59274;BME280;45044;41.572;24.730;2023-05-19T13:17:21;91530.13;;;16.94;100.00
59274;BME280;45044;41.572;24.730;2023-05-19T13:19:47;91529.50;;;16.86;100.00
59274;BME280;45044;41.572;24.730;2023-05-19T13:22:14;91528.19;;;16.74;100.00
59274;BME280;45044;41.572;24.730;2023-05-19T13:24:41;91533.00;;;16.35;100.00
59274;BME280;45044;41.572;24.730;2023-05-19T13:27:08;91523.25;;;16.04;100.00
59274;BME280;45044;41.572;24.730;2023-05-19T13:29:34;91522.97;;;16.22;100.00